Time;durP1;ratioP1;P1;durP2;ratioP2;P2;SDS_P1;SDS_P2;PMS_P1;PMS_P2;Temp;Humidity;BMP_temperature;BMP_pressure;BME280_temperature;BME280_humidity;BME280_pressure;Samples;Min_cycle;Max_cycle;Signal;HPM_P1;HPM_P2
2021/06/28 00:00:31;;;;;;;8.51;4.27;;;;;;;;;;357643;150;860597;-63
2021/06/28 00:01:33;;;;;;;5.07;3.93;;;;;;;;;;362497;148;857460;-63
2021/06/28 00:02:35;;;;;;;8.61;4.59;;;;;;;;;;361017;146;856596;-63
2021/06/28 00:03:37;;;;;;;6.82;4.71;;;;;;;;;;361528;147;867340;-63
2021/06/28 00:04:38;;;;;;;5.19;4.12;;;;;;;;;;363304;148;858627;-63
2021/06/28 00:05:40;;;;;;;5.40;4.59;;;;;;;;;;360987;147;858522;-63
2021/06/28 00:06:42;;;;;;;5.77;4.62;;;;;;;;;;360488;145;858212;-63
2021/06/28 00:07:43;;;;;;;5.25;4.06;;;;;;;;;;345994;152;858962;-64
2021/06/28 00:08:45;;;;;;;6.99;4.13;;;;;;;;;;346192;153;857297;-64
2021/06/28 00:09:46;;;;;;;10.09;5.05;;;;;;;;;;347055;152;864895;-62
2021/06/28 00:10:48;;;;;;;6.33;4.60;;;;;;;;;;347346;152;858716;-62
2021/06/28 00:11:50;;;;;;;6.61;4.46;;;;;;;;;;350368;153;866408;-62
2021/06/28 00:12:51;;;;;;;4.86;4.29;;;;;;;;;;344667;152;857492;-62
2021/06/28 00:13:54;;;;;;;5.79;4.50;;;;;;;;;;346526;152;857451;-63
2021/06/28 00:14:56;;;;;;;5.64;3.95;;;;;;;;;;351786;153;857413;-62
2021/06/28 00:15:57;;;;;;;4.86;4.14;;;;;;;;;;348259;151;863845;-63
2021/06/28 00:16:59;;;;;;;5.91;4.54;;;;;;;;;;351129;151;856265;-62
2021/06/28 00:18:01;;;;;;;7.32;4.41;;;;;;;;;;352116;153;863631;-63
2021/06/28 00:19:03;;;;;;;7.88;4.35;;;;;;;;;;344612;152;856304;-62
2021/06/28 00:20:05;;;;;;;6.16;3.95;;;;;;;;;;348724;151;863682;-63
2021/06/28 00:21:06;;;;;;;5.99;4.04;;;;;;;;;;349110;152;856291;-63
2021/06/28 00:22:08;;;;;;;8.15;4.47;;;;;;;;;;347964;153;856358;-62
2021/06/28 00:23:10;;;;;;;4.78;3.85;;;;;;;;;;351091;151;864749;-61
2021/06/28 00:24:11;;;;;;;10.06;4.64;;;;;;;;;;344808;153;856393;-62
2021/06/28 00:25:15;;;;;;;5.24;4.34;;;;;;;;;;345932;153;856834;-63
2021/06/28 00:26:17;;;;;;;5.83;4.53;;;;;;;;;;350341;151;856435;-62
2021/06/28 00:27:22;;;;;;;4.58;3.92;;;;;;;;;;351376;150;856948;-63
2021/06/28 00:28:22;;;;;;;5.91;4.06;;;;;;;;;;350467;151;863749;-63
2021/06/28 00:29:24;;;;;;;5.93;4.56;;;;;;;;;;354038;151;856423;-63
2021/06/28 00:30:26;;;;;;;5.44;3.97;;;;;;;;;;350207;152;856429;-63
2021/06/28 00:31:28;;;;;;;6.24;4.29;;;;;;;;;;352849;150;859874;-62
2021/06/28 00:32:29;;;;;;;7.64;4.18;;;;;;;;;;349592;154;860314;-63
2021/06/28 00:33:31;;;;;;;7.21;4.49;;;;;;;;;;350609;149;857581;-63
2021/06/28 00:34:32;;;;;;;6.82;4.35;;;;;;;;;;350750;150;857962;-63
2021/06/28 00:35:34;;;;;;;5.29;4.36;;;;;;;;;;351631;151;864169;-63
2021/06/28 00:36:36;;;;;;;6.35;4.04;;;;;;;;;;351132;151;856470;-63
2021/06/28 00:37:38;;;;;;;5.54;4.14;;;;;;;;;;350972;149;865952;-63
2021/06/28 00:38:40;;;;;;;5.59;4.73;;;;;;;;;;349734;152;859644;-62
2021/06/28 00:39:41;;;;;;;5.22;4.24;;;;;;;;;;354065;151;859555;-63
2021/06/28 00:40:44;;;;;;;5.75;4.44;;;;;;;;;;351702;151;857397;-62
2021/06/28 00:41:46;;;;;;;4.96;3.86;;;;;;;;;;351512;150;857288;-62
2021/06/28 00:42:47;;;;;;;6.75;4.11;;;;;;;;;;352119;151;859680;-62
2021/06/28 00:43:49;;;;;;;6.76;4.11;;;;;;;;;;350489;151;857565;-63
2021/06/28 00:44:51;;;;;;;10.78;4.24;;;;;;;;;;351577;151;858406;-62
2021/06/28 00:45:52;;;;;;;4.89;4.32;;;;;;;;;;350326;152;857467;-62
2021/06/28 00:46:54;;;;;;;8.28;4.26;;;;;;;;;;354037;151;857450;-62
2021/06/28 00:48:00;;;;;;;4.38;3.98;;;;;;;;;;351592;151;864901;-62
2021/06/28 00:49:02;;;;;;;5.61;4.18;;;;;;;;;;350663;149;857282;-62
2021/06/28 00:50:04;;;;;;;8.09;4.24;;;;;;;;;;359724;148;857889;-62
2021/06/28 00:51:05;;;;;;;6.91;4.48;;;;;;;;;;350751;149;866533;-62
2021/06/28 00:52:07;;;;;;;4.19;3.81;;;;;;;;;;351065;150;858291;-62
2021/06/28 00:53:10;;;;;;;7.06;3.99;;;;;;;;;;349702;154;857313;-63
2021/06/28 00:54:11;;;;;;;7.40;4.41;;;;;;;;;;350492;151;858827;-62
2021/06/28 00:55:13;;;;;;;5.02;3.89;;;;;;;;;;351208;149;857411;-62
2021/06/28 00:56:15;;;;;;;4.66;4.19;;;;;;;;;;353193;151;857404;-62
2021/06/28 00:57:16;;;;;;;8.64;4.36;;;;;;;;;;350163;152;857366;-62
2021/06/28 00:58:18;;;;;;;7.85;4.25;;;;;;;;;;351698;151;864777;-62
2021/06/28 00:59:20;;;;;;;5.56;3.86;;;;;;;;;;350613;150;857454;-62
2021/06/28 01:00:23;;;;;;;6.79;3.95;;;;;;;;;;350328;152;857349;-62
2021/06/28 01:01:24;;;;;;;5.22;4.11;;;;;;;;;;351069;151;857305;-62
2021/06/28 01:02:26;;;;;;;5.58;4.36;;;;;;;;;;351405;150;859067;-62
2021/06/28 01:03:28;;;;;;;7.21;4.34;;;;;;;;;;355335;151;857618;-63
2021/06/28 01:04:29;;;;;;;12.07;4.25;;;;;;;;;;350142;151;859518;-62
2021/06/28 01:05:32;;;;;;;7.19;4.36;;;;;;;;;;349672;152;858078;-62
2021/06/28 01:06:35;;;;;;;6.56;4.00;;;;;;;;;;350925;150;857643;-62
2021/06/28 01:07:36;;;;;;;6.65;4.31;;;;;;;;;;349480;154;858375;-63
2021/06/28 01:08:38;;;;;;;8.74;4.19;;;;;;;;;;349942;150;864833;-62
2021/06/28 01:09:39;;;;;;;5.51;4.11;;;;;;;;;;350123;148;857263;-63
2021/06/28 01:10:42;;;;;;;6.15;4.32;;;;;;;;;;349792;154;857319;-63
2021/06/28 01:11:43;;;;;;;6.91;4.65;;;;;;;;;;354944;151;857326;-63
2021/06/28 01:12:46;;;;;;;6.77;4.35;;;;;;;;;;350429;150;857378;-63
2021/06/28 01:13:47;;;;;;;8.89;4.17;;;;;;;;;;354102;152;857378;-62
2021/06/28 01:14:49;;;;;;;7.73;4.14;;;;;;;;;;351716;151;857294;-63
2021/06/28 01:15:51;;;;;;;8.09;4.54;;;;;;;;;;349670;149;857472;-63
2021/06/28 01:16:52;;;;;;;8.14;4.72;;;;;;;;;;346677;151;866706;-62
2021/06/28 01:17:54;;;;;;;7.67;4.41;;;;;;;;;;349370;149;865536;-62
2021/06/28 01:18:55;;;;;;;5.17;4.54;;;;;;;;;;357667;147;865107;-62
2021/06/28 01:19:59;;;;;;;5.68;4.20;;;;;;;;;;355625;149;857519;-63
2021/06/28 01:21:01;;;;;;;7.44;4.42;;;;;;;;;;353296;152;860318;-62
2021/06/28 01:22:03;;;;;;;6.21;4.41;;;;;;;;;;357581;149;857393;-63
2021/06/28 01:23:07;;;;;;;5.93;4.25;;;;;;;;;;358550;145;866398;-63
2021/06/28 01:24:08;;;;;;;6.73;4.18;;;;;;;;;;360626;146;857250;-63
2021/06/28 01:25:11;;;;;;;6.50;4.69;;;;;;;;;;361339;144;857896;-63
2021/06/28 01:26:13;;;;;;;5.03;3.98;;;;;;;;;;361944;145;857431;-63
2021/06/28 01:27:15;;;;;;;6.96;4.58;;;;;;;;;;363564;144;857372;-63
2021/06/28 01:28:16;;;;;;;5.80;4.33;;;;;;;;;;365308;147;865580;-63
2021/06/28 01:29:18;;;;;;;8.66;4.22;;;;;;;;;;365567;146;857619;-63
2021/06/28 01:30:22;;;;;;;6.51;4.11;;;;;;;;;;363898;144;857258;-63
2021/06/28 01:31:23;;;;;;;4.83;4.13;;;;;;;;;;365172;146;858454;-63
2021/06/28 01:32:25;;;;;;;5.54;4.46;;;;;;;;;;360202;145;864854;-62
2021/06/28 01:33:27;;;;;;;5.05;4.46;;;;;;;;;;362662;145;859217;-63
2021/06/28 01:34:29;;;;;;;7.38;4.43;;;;;;;;;;362664;144;865077;-62
2021/06/28 01:35:30;;;;;;;8.41;4.44;;;;;;;;;;362517;146;859625;-62
2021/06/28 01:36:32;;;;;;;11.60;4.42;;;;;;;;;;363378;144;859907;-62
2021/06/28 01:37:34;;;;;;;9.00;4.76;;;;;;;;;;363415;144;859156;-63
2021/06/28 01:38:36;;;;;;;5.52;4.15;;;;;;;;;;365125;147;857546;-62
2021/06/28 01:39:38;;;;;;;7.04;4.20;;;;;;;;;;365569;145;857439;-62
2021/06/28 01:40:40;;;;;;;5.56;4.59;;;;;;;;;;362551;144;858652;-62
2021/06/28 01:41:42;;;;;;;5.56;4.19;;;;;;;;;;361043;148;857222;-62
2021/06/28 01:42:43;;;;;;;6.08;4.09;;;;;;;;;;360989;147;859130;-63
2021/06/28 01:43:45;;;;;;;5.71;3.89;;;;;;;;;;361035;145;865970;-62
2021/06/28 01:44:47;;;;;;;5.56;4.60;;;;;;;;;;365420;144;858476;-62
2021/06/28 01:45:48;;;;;;;7.54;4.26;;;;;;;;;;365916;146;858322;-61
2021/06/28 01:46:50;;;;;;;7.33;4.53;;;;;;;;;;364166;145;864984;-62
2021/06/28 01:47:57;;;;;;;9.25;4.36;;;;;;;;;;361926;144;857336;-61
2021/06/28 01:48:56;;;;;;;9.07;4.56;;;;;;;;;;360505;146;857419;-62
2021/06/28 01:49:57;;;;;;;6.41;4.49;;;;;;;;;;363653;146;858296;-61
2021/06/28 01:50:59;;;;;;;5.40;4.17;;;;;;;;;;363416;144;857222;-61
2021/06/28 01:52:01;;;;;;;8.18;4.48;;;;;;;;;;361749;144;864912;-62
2021/06/28 01:53:02;;;;;;;6.50;4.46;;;;;;;;;;361171;149;864795;-63
2021/06/28 01:54:04;;;;;;;5.40;4.26;;;;;;;;;;362862;146;857304;-63
2021/06/28 01:55:08;;;;;;;6.07;4.56;;;;;;;;;;363590;144;857384;-62
2021/06/28 01:56:11;;;;;;;9.56;4.41;;;;;;;;;;361060;147;857223;-62
2021/06/28 01:57:12;;;;;;;8.05;4.75;;;;;;;;;;364661;144;857386;-64
2021/06/28 01:58:14;;;;;;;6.62;4.61;;;;;;;;;;364514;144;860927;-62
2021/06/28 01:59:16;;;;;;;9.34;5.11;;;;;;;;;;360755;149;858400;-62
2021/06/28 02:00:19;;;;;;;5.56;4.00;;;;;;;;;;363162;147;859430;-62
2021/06/28 02:01:21;;;;;;;7.56;4.41;;;;;;;;;;363653;145;864834;-63
2021/06/28 02:02:23;;;;;;;11.75;5.05;;;;;;;;;;363052;144;857849;-62
2021/06/28 02:03:25;;;;;;;11.56;4.89;;;;;;;;;;360982;147;858698;-62
2021/06/28 02:04:26;;;;;;;6.93;4.46;;;;;;;;;;362517;145;857231;-62
2021/06/28 02:05:29;;;;;;;6.71;4.53;;;;;;;;;;362244;144;864959;-62
2021/06/28 02:06:31;;;;;;;5.73;4.73;;;;;;;;;;362012;144;857426;-62
2021/06/28 02:07:32;;;;;;;7.84;4.31;;;;;;;;;;365707;144;865091;-62
2021/06/28 02:08:34;;;;;;;6.16;4.19;;;;;;;;;;360256;144;857462;-62
2021/06/28 02:09:36;;;;;;;5.83;4.47;;;;;;;;;;361561;144;857878;-62
2021/06/28 02:10:39;;;;;;;7.24;4.48;;;;;;;;;;360933;149;857488;-63
2021/06/28 02:11:41;;;;;;;7.25;4.69;;;;;;;;;;362700;146;857827;-63
2021/06/28 02:12:42;;;;;;;5.01;4.47;;;;;;;;;;364501;144;857290;-63
2021/06/28 02:13:44;;;;;;;6.16;4.59;;;;;;;;;;362894;148;858612;-63
2021/06/28 02:14:45;;;;;;;5.89;4.02;;;;;;;;;;362757;145;859355;-64
2021/06/28 02:15:47;;;;;;;6.02;4.31;;;;;;;;;;361547;144;858651;-63
2021/06/28 02:16:49;;;;;;;8.96;4.86;;;;;;;;;;365681;144;860103;-63
2021/06/28 02:17:50;;;;;;;8.09;4.68;;;;;;;;;;360882;149;865504;-63
2021/06/28 02:18:52;;;;;;;5.12;4.64;;;;;;;;;;361425;144;864924;-63
2021/06/28 02:19:54;;;;;;;5.18;4.30;;;;;;;;;;362166;144;859089;-63
2021/06/28 02:20:56;;;;;;;6.23;5.06;;;;;;;;;;360945;149;858346;-63
2021/06/28 02:21:58;;;;;;;5.55;4.77;;;;;;;;;;362352;146;859324;-63
2021/06/28 02:23:04;;;;;;;7.30;4.28;;;;;;;;;;361896;144;860054;-63
2021/06/28 02:24:06;;;;;;;5.80;4.53;;;;;;;;;;350645;149;859084;-63
2021/06/28 02:25:10;;;;;;;8.37;5.02;;;;;;;;;;365270;144;857301;-63
2021/06/28 02:26:12;;;;;;;10.74;4.58;;;;;;;;;;364388;144;858994;-63
2021/06/28 02:27:14;;;;;;;5.98;4.37;;;;;;;;;;365437;144;857771;-63
2021/06/28 02:28:16;;;;;;;6.58;4.81;;;;;;;;;;362013;146;859654;-62
2021/06/28 02:29:17;;;;;;;6.26;4.86;;;;;;;;;;363721;145;859288;-62
2021/06/28 02:30:20;;;;;;;7.23;4.65;;;;;;;;;;365278;144;858080;-63
2021/06/28 02:31:22;;;;;;;5.90;4.83;;;;;;;;;;362911;146;865566;-63
2021/06/28 02:32:24;;;;;;;7.01;4.88;;;;;;;;;;363009;145;858989;-63
2021/06/28 02:33:26;;;;;;;7.36;4.87;;;;;;;;;;363843;144;858319;-63
2021/06/28 02:34:27;;;;;;;11.39;4.66;;;;;;;;;;365798;146;857494;-63
2021/06/28 02:35:29;;;;;;;9.44;4.66;;;;;;;;;;368293;146;857523;-63
2021/06/28 02:36:32;;;;;;;7.35;4.91;;;;;;;;;;363511;144;857557;-63
2021/06/28 02:37:34;;;;;;;7.64;4.63;;;;;;;;;;366234;144;859159;-63
2021/06/28 02:38:36;;;;;;;7.14;4.64;;;;;;;;;;368283;146;857389;-63
2021/06/28 02:39:37;;;;;;;6.85;4.95;;;;;;;;;;365246;145;866734;-63
2021/06/28 02:40:41;;;;;;;9.12;5.03;;;;;;;;;;362094;145;857735;-63
2021/06/28 02:41:42;;;;;;;6.33;4.92;;;;;;;;;;361554;147;858527;-63
2021/06/28 02:42:44;;;;;;;8.14;5.03;;;;;;;;;;361746;145;857390;-63
2021/06/28 02:43:46;;;;;;;6.68;4.56;;;;;;;;;;364861;144;865200;-63
2021/06/28 02:44:48;;;;;;;8.35;4.67;;;;;;;;;;361565;149;857315;-63
2021/06/28 02:45:49;;;;;;;7.35;5.56;;;;;;;;;;361508;149;858554;-62
2021/06/28 02:46:51;;;;;;;8.17;5.38;;;;;;;;;;363977;144;859623;-61
2021/06/28 02:47:53;;;;;;;7.51;5.02;;;;;;;;;;366716;144;860320;-61
2021/06/28 02:48:54;;;;;;;7.01;4.92;;;;;;;;;;366013;144;865696;-61
2021/06/28 02:49:56;;;;;;;6.05;4.87;;;;;;;;;;367957;144;858573;-61
2021/06/28 02:50:58;;;;;;;8.01;4.97;;;;;;;;;;363591;144;864841;-60
2021/06/28 02:51:59;;;;;;;7.16;5.06;;;;;;;;;;363717;147;864861;-63
2021/06/28 02:53:01;;;;;;;8.96;5.88;;;;;;;;;;363514;144;857220;-63
2021/06/28 02:54:03;;;;;;;12.44;5.42;;;;;;;;;;362392;145;857394;-60
2021/06/28 02:55:05;;;;;;;5.49;4.78;;;;;;;;;;366426;146;864976;-62
2021/06/28 02:56:13;;;;;;;6.51;5.17;;;;;;;;;;363345;146;866441;-60
2021/06/28 02:57:14;;;;;;;6.17;5.28;;;;;;;;;;363304;145;859183;-61
2021/06/28 02:58:16;;;;;;;8.12;4.97;;;;;;;;;;367042;144;857289;-60
2021/06/28 02:59:18;;;;;;;7.90;5.33;;;;;;;;;;362350;146;859490;-61
2021/06/28 03:00:20;;;;;;;6.91;4.55;;;;;;;;;;365654;145;857455;-58
2021/06/28 03:01:22;;;;;;;6.54;4.91;;;;;;;;;;362477;144;864950;-60
2021/06/28 03:02:24;;;;;;;8.33;5.27;;;;;;;;;;361334;146;868482;-60
2021/06/28 03:03:25;;;;;;;7.62;4.86;;;;;;;;;;361394;145;858997;-59
2021/06/28 03:04:27;;;;;;;9.30;5.39;;;;;;;;;;364318;146;857483;-60
2021/06/28 03:05:28;;;;;;;9.24;4.80;;;;;;;;;;362623;145;858000;-59
2021/06/28 03:06:30;;;;;;;6.34;4.75;;;;;;;;;;364419;147;857941;-58
2021/06/28 03:07:32;;;;;;;6.95;5.07;;;;;;;;;;364544;144;864912;-59
2021/06/28 03:08:35;;;;;;;5.74;4.89;;;;;;;;;;363753;144;857514;-58
2021/06/28 03:09:38;;;;;;;8.99;5.18;;;;;;;;;;363550;146;858005;-60
2021/06/28 03:10:40;;;;;;;7.47;5.45;;;;;;;;;;364447;145;864957;-61
2021/06/28 03:11:41;;;;;;;11.96;5.19;;;;;;;;;;363860;144;865665;-61
2021/06/28 03:12:43;;;;;;;9.29;5.70;;;;;;;;;;363670;144;857260;-60
2021/06/28 03:13:45;;;;;;;8.21;5.04;;;;;;;;;;364939;144;857249;-58
2021/06/28 03:14:46;;;;;;;8.09;4.77;;;;;;;;;;364477;145;857783;-61
2021/06/28 03:15:48;;;;;;;7.40;5.31;;;;;;;;;;362032;144;864961;-61
2021/06/28 03:16:49;;;;;;;6.73;4.79;;;;;;;;;;363177;146;857267;-60
2021/06/28 03:17:51;;;;;;;6.09;4.99;;;;;;;;;;364296;145;866724;-59
2021/06/28 03:18:53;;;;;;;8.86;5.15;;;;;;;;;;364599;144;859082;-63
2021/06/28 03:19:54;;;;;;;8.68;5.10;;;;;;;;;;365196;146;859975;-63
2021/06/28 03:20:56;;;;;;;9.14;5.36;;;;;;;;;;364614;145;858826;-61
2021/06/28 03:21:58;;;;;;;11.32;5.79;;;;;;;;;;365558;144;866051;-62
2021/06/28 03:22:59;;;;;;;9.09;4.92;;;;;;;;;;362202;144;857767;-63
2021/06/28 03:24:01;;;;;;;8.86;5.63;;;;;;;;;;359104;148;857521;-64
2021/06/28 03:25:03;;;;;;;8.69;4.80;;;;;;;;;;361437;146;864913;-63
2021/06/28 03:26:04;;;;;;;6.72;5.21;;;;;;;;;;360704;146;857392;-62
2021/06/28 03:27:06;;;;;;;7.56;5.22;;;;;;;;;;360021;149;858682;-63
2021/06/28 03:28:08;;;;;;;6.13;4.96;;;;;;;;;;361268;146;857259;-63
2021/06/28 03:29:09;;;;;;;6.34;4.89;;;;;;;;;;359978;146;864817;-62
2021/06/28 03:30:12;;;;;;;8.82;5.01;;;;;;;;;;364122;146;865491;-62
2021/06/28 03:31:14;;;;;;;8.12;5.10;;;;;;;;;;362705;148;859172;-63
2021/06/28 03:32:16;;;;;;;9.10;4.84;;;;;;;;;;359726;147;858856;-61
2021/06/28 03:33:17;;;;;;;6.49;4.93;;;;;;;;;;360260;146;857239;-64
2021/06/28 03:34:19;;;;;;;6.05;4.92;;;;;;;;;;358982;148;857176;-61
2021/06/28 03:35:23;;;;;;;6.68;4.87;;;;;;;;;;363058;147;857440;-60
2021/06/28 03:36:25;;;;;;;9.53;5.04;;;;;;;;;;360844;146;858990;-63
2021/06/28 03:37:27;;;;;;;9.14;5.35;;;;;;;;;;363130;146;857912;-62
2021/06/28 03:38:28;;;;;;;7.88;4.53;;;;;;;;;;361586;147;865030;-63
2021/06/28 03:39:31;;;;;;;7.58;4.98;;;;;;;;;;359710;148;865011;-62
2021/06/28 03:40:34;;;;;;;6.25;5.05;;;;;;;;;;360672;146;857448;-59
2021/06/28 03:41:36;;;;;;;5.59;4.56;;;;;;;;;;357992;148;859004;-64
2021/06/28 03:42:38;;;;;;;5.35;4.66;;;;;;;;;;359384;145;864981;-62
2021/06/28 03:43:39;;;;;;;7.25;4.59;;;;;;;;;;360676;146;866184;-63
2021/06/28 03:44:41;;;;;;;5.92;4.78;;;;;;;;;;361897;148;857733;-62
2021/06/28 03:45:43;;;;;;;6.93;4.67;;;;;;;;;;362285;147;860031;-64
2021/06/28 03:46:44;;;;;;;6.97;4.81;;;;;;;;;;359918;146;857907;-63
2021/06/28 03:47:46;;;;;;;6.66;4.91;;;;;;;;;;359273;148;864878;-63
2021/06/28 03:48:47;;;;;;;6.59;4.82;;;;;;;;;;359568;148;857439;-64
2021/06/28 03:49:49;;;;;;;7.27;4.84;;;;;;;;;;361084;147;858968;-63
2021/06/28 03:50:53;;;;;;;7.23;5.11;;;;;;;;;;361139;146;864890;-64
2021/06/28 03:51:54;;;;;;;6.52;4.33;;;;;;;;;;362925;146;857438;-65
2021/06/28 03:52:56;;;;;;;6.69;4.49;;;;;;;;;;362108;147;857342;-64
2021/06/28 03:53:57;;;;;;;5.63;4.61;;;;;;;;;;360362;146;857402;-64
2021/06/28 03:54:59;;;;;;;7.07;5.09;;;;;;;;;;361844;148;865321;-67
2021/06/28 03:56:06;;;;;;;6.17;4.71;;;;;;;;;;364139;147;857670;-66
2021/06/28 03:57:04;;;;;;;5.73;4.71;;;;;;;;;;360929;146;859137;-64
2021/06/28 03:58:06;;;;;;;6.99;5.04;;;;;;;;;;362505;146;857309;-61
2021/06/28 03:59:07;;;;;;;6.65;4.45;;;;;;;;;;359864;148;864731;-63
2021/06/28 04:00:10;;;;;;;7.16;4.86;;;;;;;;;;361579;146;857334;-62
2021/06/28 04:01:12;;;;;;;9.33;4.71;;;;;;;;;;359509;146;857359;-63
2021/06/28 04:02:14;;;;;;;5.61;4.11;;;;;;;;;;361002;148;865137;-59
2021/06/28 04:03:16;;;;;;;5.21;4.53;;;;;;;;;;359870;147;865428;-62
2021/06/28 04:04:19;;;;;;;5.64;4.83;;;;;;;;;;361550;146;857284;-63
2021/06/28 04:05:22;;;;;;;7.92;4.92;;;;;;;;;;357850;147;857432;-63
2021/06/28 04:06:24;;;;;;;6.58;4.23;;;;;;;;;;359126;146;857361;-63
2021/06/28 04:07:26;;;;;;;6.17;4.93;;;;;;;;;;360032;146;858723;-64
2021/06/28 04:08:27;;;;;;;8.94;4.64;;;;;;;;;;359885;146;865033;-64
2021/06/28 04:09:29;;;;;;;5.55;4.45;;;;;;;;;;361274;148;857456;-64
2021/06/28 04:10:32;;;;;;;6.79;4.71;;;;;;;;;;359430;147;857459;-63
2021/06/28 04:11:34;;;;;;;5.71;4.49;;;;;;;;;;360735;146;856942;-64
2021/06/28 04:12:35;;;;;;;7.69;4.79;;;;;;;;;;361230;146;856842;-64
2021/06/28 04:13:37;;;;;;;5.92;5.28;;;;;;;;;;362398;147;859153;-66
2021/06/28 04:14:40;;;;;;;6.50;4.41;;;;;;;;;;359571;146;858889;-65
2021/06/28 04:15:42;;;;;;;5.93;4.83;;;;;;;;;;359398;148;865674;-63
2021/06/28 04:16:45;;;;;;;6.52;4.42;;;;;;;;;;363556;146;857253;-66
2021/06/28 04:17:48;;;;;;;7.43;4.30;;;;;;;;;;361389;146;865699;-66
2021/06/28 04:18:50;;;;;;;6.52;4.73;;;;;;;;;;362766;145;857431;-66
2021/06/28 04:19:51;;;;;;;6.90;4.49;;;;;;;;;;363340;148;864832;-66
2021/06/28 04:20:55;;;;;;;6.61;4.43;;;;;;;;;;360715;147;864989;-68
2021/06/28 04:21:56;;;;;;;5.25;4.05;;;;;;;;;;361031;146;857395;-68
2021/06/28 04:22:58;;;;;;;7.43;4.42;;;;;;;;;;360036;148;857440;-63
2021/06/28 04:24:03;;;;;;;6.06;4.31;;;;;;;;;;360985;146;866195;-64
2021/06/28 04:25:04;;;;;;;6.34;4.74;;;;;;;;;;362578;145;857612;-62
2021/06/28 04:26:06;;;;;;;5.69;4.55;;;;;;;;;;361643;146;857329;-64
2021/06/28 04:27:08;;;;;;;5.02;4.34;;;;;;;;;;357130;148;857336;-63
2021/06/28 04:28:10;;;;;;;7.11;4.94;;;;;;;;;;360856;146;859436;-61
2021/06/28 04:29:12;;;;;;;6.64;4.51;;;;;;;;;;361804;146;858046;-66
2021/06/28 04:30:14;;;;;;;5.74;4.11;;;;;;;;;;360609;148;857472;-68
2021/06/28 04:31:16;;;;;;;5.11;4.03;;;;;;;;;;363666;147;864887;-65
2021/06/28 04:32:17;;;;;;;5.15;4.47;;;;;;;;;;358549;146;859632;-67
2021/06/28 04:33:19;;;;;;;6.94;4.16;;;;;;;;;;361727;148;857267;-69
2021/06/28 04:34:20;;;;;;;7.47;4.51;;;;;;;;;;363798;148;857348;-66
2021/06/28 04:35:23;;;;;;;6.06;4.39;;;;;;;;;;358028;147;857450;-66
2021/06/28 04:36:26;;;;;;;5.34;4.57;;;;;;;;;;360699;146;857397;-64
2021/06/28 04:37:28;;;;;;;6.28;4.44;;;;;;;;;;361562;148;859323;-67
2021/06/28 04:38:29;;;;;;;6.64;4.76;;;;;;;;;;361839;147;864905;-66
2021/06/28 04:39:31;;;;;;;4.86;4.36;;;;;;;;;;361140;146;857904;-65
2021/06/28 04:40:34;;;;;;;8.13;5.08;;;;;;;;;;363644;145;857520;-65
2021/06/28 04:41:35;;;;;;;5.66;4.61;;;;;;;;;;363834;146;857398;-65
2021/06/28 04:42:37;;;;;;;7.79;4.22;;;;;;;;;;360892;146;865496;-67
2021/06/28 04:43:39;;;;;;;4.74;4.27;;;;;;;;;;360366;146;859156;-65
2021/06/28 04:44:41;;;;;;;7.47;4.58;;;;;;;;;;360868;148;857963;-65
2021/06/28 04:45:42;;;;;;;6.63;4.46;;;;;;;;;;359593;147;857258;-64
2021/06/28 04:46:45;;;;;;;7.09;4.35;;;;;;;;;;361063;146;857345;-66
2021/06/28 04:47:47;;;;;;;5.13;4.45;;;;;;;;;;361318;148;857278;-65
2021/06/28 04:48:48;;;;;;;6.43;4.08;;;;;;;;;;358115;148;864784;-65
2021/06/28 04:49:50;;;;;;;5.06;4.18;;;;;;;;;;359169;146;857335;-65
2021/06/28 04:50:52;;;;;;;6.84;4.52;;;;;;;;;;359775;148;857430;-65
2021/06/28 04:51:53;;;;;;;8.66;4.31;;;;;;;;;;361159;146;865907;-66
2021/06/28 04:52:55;;;;;;;6.33;4.38;;;;;;;;;;360665;146;859095;-66
2021/06/28 04:53:57;;;;;;;5.81;3.99;;;;;;;;;;358751;146;858710;-63
2021/06/28 04:54:59;;;;;;;6.11;4.98;;;;;;;;;;359114;146;859030;-65
2021/06/28 04:56:04;;;;;;;7.16;4.45;;;;;;;;;;360346;146;860704;-62
2021/06/28 04:57:04;;;;;;;4.72;4.16;;;;;;;;;;358872;146;858245;-64
2021/06/28 04:58:06;;;;;;;4.51;3.70;;;;;;;;;;357488;148;857346;-64
2021/06/28 04:59:07;;;;;;;6.51;4.26;;;;;;;;;;358882;147;857512;-63
2021/06/28 05:00:12;;;;;;;6.56;3.85;;;;;;;;;;360821;146;866461;-62
2021/06/28 05:01:13;;;;;;;4.79;4.29;;;;;;;;;;363158;146;857366;-64
2021/06/28 05:02:15;;;;;;;7.66;4.45;;;;;;;;;;362997;148;859842;-65
2021/06/28 05:03:17;;;;;;;4.16;3.37;;;;;;;;;;359573;147;857405;-64
2021/06/28 05:04:19;;;;;;;4.86;4.07;;;;;;;;;;360584;145;857762;-63
2021/06/28 05:05:20;;;;;;;5.70;4.46;;;;;;;;;;367002;145;865006;-64
2021/06/28 05:06:24;;;;;;;4.70;4.16;;;;;;;;;;358968;147;857370;-63
2021/06/28 05:07:25;;;;;;;8.81;4.50;;;;;;;;;;359507;146;865632;-65
2021/06/28 05:08:27;;;;;;;4.75;3.96;;;;;;;;;;360889;148;857442;-64
2021/06/28 05:09:29;;;;;;;7.57;4.19;;;;;;;;;;361802;146;857484;-64
2021/06/28 05:10:31;;;;;;;4.92;3.95;;;;;;;;;;358542;148;858002;-63
2021/06/28 05:11:32;;;;;;;4.32;3.79;;;;;;;;;;363674;145;858485;-63
2021/06/28 05:12:34;;;;;;;5.50;3.41;;;;;;;;;;362086;146;857929;-63
2021/06/28 05:13:35;;;;;;;7.17;3.62;;;;;;;;;;362472;146;857443;-62
2021/06/28 05:14:38;;;;;;;5.68;4.12;;;;;;;;;;360304;146;858342;-65
2021/06/28 05:15:40;;;;;;;9.02;4.56;;;;;;;;;;357238;150;857516;-63
2021/06/28 05:16:42;;;;;;;4.46;3.65;;;;;;;;;;357330;146;858264;-66
2021/06/28 05:17:44;;;;;;;4.03;3.62;;;;;;;;;;359727;146;860443;-65
2021/06/28 05:18:45;;;;;;;9.80;4.51;;;;;;;;;;360099;148;857340;-63
2021/06/28 05:19:47;;;;;;;9.41;4.21;;;;;;;;;;361455;146;864909;-66
2021/06/28 05:20:49;;;;;;;8.31;4.33;;;;;;;;;;361567;146;857575;-66
2021/06/28 05:21:50;;;;;;;5.27;4.01;;;;;;;;;;360430;145;859204;-65
2021/06/28 05:22:52;;;;;;;5.09;3.94;;;;;;;;;;367126;146;858413;-65
2021/06/28 05:23:54;;;;;;;6.32;3.61;;;;;;;;;;363028;146;860144;-67
2021/06/28 05:24:55;;;;;;;6.18;3.80;;;;;;;;;;358329;146;859945;-64
2021/06/28 05:25:57;;;;;;;7.05;3.79;;;;;;;;;;361161;149;859098;-64
2021/06/28 05:26:59;;;;;;;4.55;3.46;;;;;;;;;;360640;148;863677;-64
2021/06/28 05:28:00;;;;;;;5.01;3.75;;;;;;;;;;352494;148;863742;-65
2021/06/28 05:29:02;;;;;;;6.39;3.76;;;;;;;;;;352633;148;857000;-65
2021/06/28 05:30:05;;;;;;;5.36;3.42;;;;;;;;;;356121;148;856383;-62
2021/06/28 05:31:07;;;;;;;4.12;3.75;;;;;;;;;;360807;147;865974;-64
2021/06/28 05:32:08;;;;;;;6.16;3.79;;;;;;;;;;360156;146;859999;-64
2021/06/28 05:33:10;;;;;;;4.26;3.59;;;;;;;;;;360849;148;857309;-63
2021/06/28 05:34:12;;;;;;;4.42;3.17;;;;;;;;;;359399;148;857342;-63
2021/06/28 05:35:14;;;;;;;4.02;3.20;;;;;;;;;;361810;147;857347;-63
2021/06/28 05:36:16;;;;;;;7.97;3.68;;;;;;;;;;360802;147;857438;-64
2021/06/28 05:37:18;;;;;;;6.99;3.75;;;;;;;;;;360169;148;857398;-62
2021/06/28 05:38:20;;;;;;;7.03;3.75;;;;;;;;;;361353;147;857932;-64
2021/06/28 05:39:22;;;;;;;3.63;3.31;;;;;;;;;;363036;147;857369;-64
2021/06/28 05:40:24;;;;;;;4.09;3.55;;;;;;;;;;363841;147;858982;-63
2021/06/28 05:41:25;;;;;;;4.12;3.16;;;;;;;;;;361170;148;859185;-62
2021/06/28 05:42:27;;;;;;;7.01;3.64;;;;;;;;;;360657;146;858164;-66
2021/06/28 05:43:28;;;;;;;3.88;2.85;;;;;;;;;;361316;148;859386;-63
2021/06/28 05:44:30;;;;;;;4.22;3.06;;;;;;;;;;357075;147;858883;-64
2021/06/28 05:45:32;;;;;;;4.88;3.55;;;;;;;;;;360753;146;864889;-66
2021/06/28 05:46:34;;;;;;;6.27;3.57;;;;;;;;;;360494;147;857409;-65
2021/06/28 05:47:35;;;;;;;3.62;3.26;;;;;;;;;;355088;147;857973;-65
2021/06/28 05:48:37;;;;;;;3.79;3.14;;;;;;;;;;358642;147;864975;-66
2021/06/28 05:49:40;;;;;;;4.37;3.26;;;;;;;;;;361668;147;859801;-65
2021/06/28 05:50:43;;;;;;;7.15;3.26;;;;;;;;;;359964;148;860314;-63
2021/06/28 05:51:44;;;;;;;4.87;3.49;;;;;;;;;;361870;148;857328;-65
2021/06/28 05:52:46;;;;;;;4.62;3.62;;;;;;;;;;359189;146;857302;-65
2021/06/28 05:53:48;;;;;;;5.95;3.68;;;;;;;;;;362252;148;857291;-65
2021/06/28 05:54:49;;;;;;;6.78;3.66;;;;;;;;;;357150;148;864731;-65
2021/06/28 05:55:51;;;;;;;3.52;3.21;;;;;;;;;;359929;146;864951;-64
2021/06/28 05:56:53;;;;;;;4.99;3.29;;;;;;;;;;359491;147;857936;-65
2021/06/28 05:57:55;;;;;;;4.39;3.21;;;;;;;;;;361416;148;857306;-64
2021/06/28 05:58:56;;;;;;;4.73;3.22;;;;;;;;;;360827;147;857344;-64
2021/06/28 05:59:58;;;;;;;3.61;3.16;;;;;;;;;;362047;147;857337;-66
2021/06/28 06:01:00;;;;;;;4.79;3.11;;;;;;;;;;361227;147;858915;-65
2021/06/28 06:02:02;;;;;;;5.36;3.14;;;;;;;;;;359427;147;859070;-65
2021/06/28 06:03:04;;;;;;;7.39;3.43;;;;;;;;;;360223;147;859666;-65
2021/06/28 06:04:07;;;;;;;4.97;3.27;;;;;;;;;;360714;147;859828;-63
2021/06/28 06:05:09;;;;;;;4.07;2.91;;;;;;;;;;357050;151;857418;-63